Penrose, Utah
Current Conditions -  °F | °C
As of 12:55 PM on Monday 22 Dec 2014 (Local Time) from KBMC Reporting Station
Overcast Overcast  
Wind Chill: 35°   Ceiling: 4800
Heat Index: 43°   Visibility: 10mi
Dew Point: 31°   Wind: 17mph
Humidity: 62%   Direction: 330°NNW
Pressure: 30.01"   Gusts: 22mph
Location:  41.6836°N, 112.26°W
Report Text: KBMC 221955Z AUTO 33015G19KT 10SM SCT039 OVC048 06/M01 A3001 RMK AO1 T00611006
Loading
Personal Weather Stations






























Interactive Weather Map New forecast layout! Learn more

10-Day Weather Forecast

Advertisements
Track Severe Weather on mobile